createdAt,value
2018-05-25T00:00:42.340Z,15.73
2018-05-25T00:03:10.633Z,15.47
2018-05-25T00:05:38.189Z,16.27
2018-05-25T00:08:05.716Z,16.50
2018-05-25T00:10:33.250Z,15.63
2018-05-25T00:13:00.762Z,15.63
2018-05-25T00:15:28.306Z,15.77
2018-05-25T00:17:55.832Z,16.67
2018-05-25T00:20:23.380Z,16.33
2018-05-25T00:22:50.898Z,16.07
2018-05-25T00:25:18.423Z,15.77
2018-05-25T00:27:45.947Z,15.53
2018-05-25T00:30:13.472Z,16.70
2018-05-25T00:32:40.988Z,16.13
2018-05-25T00:35:08.515Z,14.40
2018-05-25T00:37:36.040Z,16.43
2018-05-25T00:40:03.563Z,15.77
2018-05-25T00:42:31.092Z,15.50
2018-05-25T00:44:58.619Z,15.90
2018-05-25T00:47:26.904Z,15.53
2018-05-25T00:49:54.427Z,16.03
2018-05-25T00:52:21.948Z,14.50
2018-05-25T00:55:01.268Z,15.37
2018-05-25T00:57:30.497Z,16.10
2018-05-25T00:59:58.015Z,15.93
2018-05-25T01:02:25.536Z,15.87
2018-05-25T01:04:53.058Z,14.73
2018-05-25T01:07:20.585Z,16.17
2018-05-25T01:09:48.107Z,15.97
2018-05-25T01:12:15.623Z,15.70
2018-05-25T01:14:43.148Z,17.17
2018-05-25T01:17:10.674Z,15.57
2018-05-25T01:19:38.194Z,16.27
2018-05-25T01:22:05.715Z,15.77
2018-05-25T01:24:33.238Z,17.40
2018-05-25T01:27:00.765Z,16.77
2018-05-25T01:29:29.063Z,16.83
2018-05-25T01:31:56.588Z,16.87
2018-05-25T01:34:24.109Z,16.60
2018-05-25T01:36:51.636Z,17.53
2018-05-25T01:39:19.932Z,17.73
2018-05-25T01:41:47.451Z,17.97
2018-05-25T01:44:15.013Z,17.33
2018-05-25T01:46:42.560Z,18.63
2018-05-25T01:49:10.079Z,18.57
2018-05-25T01:51:37.615Z,17.10
2018-05-25T01:54:05.430Z,19.43
2018-05-25T01:56:32.980Z,18.37
2018-05-25T01:59:00.502Z,19.67
2018-05-25T02:01:28.043Z,18.83
2018-05-25T02:03:55.566Z,18.93
2018-05-25T02:06:23.117Z,18.63
2018-05-25T02:08:50.668Z,19.30
2018-05-25T02:11:18.368Z,19.30
2018-05-25T02:13:45.911Z,20.07
2018-05-25T02:16:14.314Z,19.03
2018-05-25T02:18:41.841Z,19.53
2018-05-25T02:21:09.360Z,19.97
2018-05-25T02:23:36.882Z,19.63
2018-05-25T02:26:04.432Z,19.90
2018-05-25T02:28:32.790Z,20.93
2018-05-25T02:31:00.309Z,19.67
2018-05-25T02:33:27.831Z,20.80
2018-05-25T02:35:55.348Z,20.03
2018-05-25T02:38:22.876Z,19.93
2018-05-25T02:40:50.407Z,19.13
2018-05-25T02:43:17.927Z,19.87
2018-05-25T02:45:45.459Z,18.73
2018-05-25T02:48:12.980Z,19.90
2018-05-25T02:50:40.495Z,20.13
2018-05-25T02:53:08.070Z,19.23
2018-05-25T02:55:35.563Z,20.37
2018-05-25T02:58:03.084Z,20.53
2018-05-25T03:00:30.599Z,21.43
2018-05-25T03:02:58.125Z,20.60
2018-05-25T03:05:25.652Z,20.50
2018-05-25T03:07:53.171Z,21.63
2018-05-25T03:10:20.696Z,21.90
2018-05-25T03:12:48.979Z,22.63
2018-05-25T03:15:16.504Z,22.80
2018-05-25T03:17:44.060Z,21.43
2018-05-25T03:20:11.587Z,21.50
2018-05-25T03:22:39.098Z,21.63
2018-05-25T03:25:06.620Z,21.97
2018-05-25T03:27:34.143Z,22.20
2018-05-25T03:30:01.666Z,23.33
2018-05-25T03:32:29.183Z,21.87
2018-05-25T03:34:56.703Z,22.17
2018-05-25T03:37:24.220Z,23.30
2018-05-25T03:39:51.743Z,21.60
2018-05-25T03:42:19.264Z,21.40
2018-05-25T03:44:47.584Z,21.73
2018-05-25T03:47:15.103Z,21.17
2018-05-25T03:49:42.623Z,21.93
2018-05-25T03:52:10.140Z,21.23
2018-05-25T03:54:37.667Z,21.63
2018-05-25T03:57:05.192Z,21.73
2018-05-25T03:59:44.559Z,20.20
2018-05-25T04:02:12.071Z,22.83
2018-05-25T04:04:40.226Z,20.37
2018-05-25T04:07:08.513Z,21.13
2018-05-25T04:09:36.043Z,21.33
2018-05-25T04:12:04.392Z,21.37
2018-05-25T04:14:31.924Z,22.03
2018-05-25T04:16:59.448Z,21.83
2018-05-25T04:19:26.967Z,21.23
2018-05-25T04:21:54.487Z,20.30
2018-05-25T04:24:22.016Z,21.90
2018-05-25T04:26:49.535Z,21.00
2018-05-25T04:29:17.055Z,20.27
2018-05-25T04:31:44.571Z,20.97
2018-05-25T04:34:12.091Z,21.47
2018-05-25T04:36:39.616Z,20.27
2018-05-25T04:39:07.143Z,20.50
2018-05-25T04:41:34.683Z,20.77
2018-05-25T04:44:02.203Z,20.70
2018-05-25T04:46:29.722Z,21.23
2018-05-25T04:48:57.244Z,20.50
2018-05-25T04:51:24.760Z,20.97
2018-05-25T04:53:52.281Z,19.87
2018-05-25T04:56:19.809Z,20.90
2018-05-25T04:58:48.127Z,20.73
2018-05-25T05:01:15.645Z,20.27
2018-05-25T05:03:43.161Z,20.73
2018-05-25T05:06:10.680Z,20.20
2018-05-25T05:08:38.959Z,19.73
2018-05-25T05:11:06.476Z,19.03
2018-05-25T05:13:34.007Z,20.17
2018-05-25T05:16:01.532Z,18.73
2018-05-25T05:18:29.844Z,19.50
2018-05-25T05:20:57.362Z,19.30
2018-05-25T05:23:24.912Z,19.40
2018-05-25T05:25:53.694Z,19.23
2018-05-25T05:28:21.244Z,17.80
2018-05-25T05:30:48.776Z,19.00
2018-05-25T05:33:16.295Z,18.07
2018-05-25T05:35:44.582Z,18.53
2018-05-25T05:38:12.099Z,17.63
2018-05-25T05:40:39.623Z,18.23
2018-05-25T05:43:07.147Z,17.47
2018-05-25T05:45:34.679Z,17.50
2018-05-25T05:48:02.205Z,18.70
2018-05-25T05:50:29.735Z,17.73
2018-05-25T05:52:57.255Z,16.00
2018-05-25T05:55:24.780Z,16.10
2018-05-25T05:57:52.300Z,16.93
2018-05-25T06:00:19.833Z,16.40
2018-05-25T06:02:47.351Z,15.20
2018-05-25T06:05:15.667Z,15.83
2018-05-25T06:07:43.187Z,15.57
2018-05-25T06:10:10.728Z,14.60
2018-05-25T06:12:38.246Z,14.67
2018-05-25T06:15:05.781Z,15.03
2018-05-25T06:17:33.296Z,14.00
2018-05-25T06:20:00.859Z,14.93
2018-05-25T06:22:28.351Z,15.47
2018-05-25T06:24:55.866Z,15.73
2018-05-25T06:27:23.731Z,14.60
2018-05-25T06:29:51.253Z,13.67
2018-05-25T06:32:18.779Z,14.20
2018-05-25T06:34:46.367Z,13.40
2018-05-25T06:37:14.634Z,14.70
2018-05-25T06:39:42.149Z,14.03
2018-05-25T06:42:09.692Z,12.63
2018-05-25T06:44:37.211Z,13.07
2018-05-25T06:47:05.504Z,13.77
2018-05-25T06:49:33.027Z,13.40
2018-05-25T06:52:00.561Z,12.73
2018-05-25T06:54:28.103Z,12.93
2018-05-25T06:56:55.634Z,12.73
2018-05-25T06:59:23.176Z,13.10
2018-05-25T07:01:50.699Z,12.63
2018-05-25T07:04:18.232Z,12.97
2018-05-25T07:06:45.763Z,11.80
2018-05-25T07:09:13.308Z,12.07
2018-05-25T07:11:41.598Z,13.93
2018-05-25T07:14:09.119Z,12.73
2018-05-25T07:16:36.644Z,13.27
2018-05-25T07:19:04.200Z,12.20
2018-05-25T07:21:31.724Z,11.27
2018-05-25T07:23:59.255Z,10.57
2018-05-25T07:26:26.766Z,10.80
2018-05-25T07:28:54.278Z,11.03
2018-05-25T07:31:21.799Z,11.90
2018-05-25T07:33:49.327Z,10.70
2018-05-25T07:36:16.847Z,11.27
2018-05-25T07:38:44.358Z,11.03
2018-05-25T07:41:12.639Z,10.47
2018-05-25T07:43:40.160Z,11.07
2018-05-25T07:46:07.679Z,10.53
2018-05-25T07:48:35.198Z,10.47
2018-05-25T07:51:02.719Z,10.83
2018-05-25T07:53:30.241Z,11.60
2018-05-25T07:55:57.829Z,13.03
2018-05-25T07:58:25.352Z,12.27
2018-05-25T08:00:52.874Z,11.12
2018-05-25T08:03:20.396Z,10.75
2018-05-25T08:05:47.920Z,12.48
2018-05-25T08:08:15.440Z,13.02
2018-05-25T08:10:42.965Z,12.23
2018-05-25T08:13:10.496Z,14.25
2018-05-25T08:15:38.025Z,12.95
2018-05-25T08:18:05.541Z,11.93
2018-05-25T08:20:33.063Z,11.07
2018-05-25T08:23:00.600Z,11.07
2018-05-25T08:25:28.131Z,10.10
2018-05-25T08:27:55.664Z,44.92
2018-05-25T08:30:23.252Z,12.40
2018-05-25T08:32:50.766Z,10.75
2018-05-25T08:35:18.306Z,10.35
2018-05-25T08:37:45.835Z,10.65
2018-05-25T08:40:13.380Z,13.05
2018-05-25T08:42:41.670Z,11.93
2018-05-25T08:45:09.208Z,14.05
2018-05-25T08:47:36.735Z,12.77
2018-05-25T08:50:04.279Z,12.75
2018-05-25T08:52:31.810Z,11.05
2018-05-25T08:54:59.330Z,9.85
2018-05-25T08:57:26.850Z,12.52
2018-05-25T08:59:54.367Z,10.23
2018-05-25T09:02:22.401Z,10.77
2018-05-25T09:04:49.919Z,11.32
2018-05-25T09:07:17.435Z,11.23
2018-05-25T09:09:44.959Z,12.40
2018-05-25T09:12:12.484Z,12.23
2018-05-25T09:14:39.999Z,11.65
2018-05-25T09:17:07.527Z,11.75
2018-05-25T09:19:35.042Z,11.77
2018-05-25T09:22:02.576Z,10.63
2018-05-25T09:24:30.087Z,9.75
2018-05-25T09:26:57.611Z,10.35
2018-05-25T09:29:25.127Z,9.55
2018-05-25T09:31:52.654Z,10.77
2018-05-25T09:34:20.180Z,10.52
2018-05-25T09:36:47.699Z,11.12
2018-05-25T09:39:16.071Z,9.90
2018-05-25T09:41:43.604Z,11.38
2018-05-25T09:44:11.119Z,9.75
2018-05-25T09:46:38.646Z,9.85
2018-05-25T09:49:06.171Z,10.50
2018-05-25T09:51:33.699Z,11.63
2018-05-25T09:54:01.264Z,10.57
2018-05-25T09:56:28.795Z,10.32
2018-05-25T09:58:56.319Z,11.85
2018-05-25T10:01:23.837Z,10.57
2018-05-25T10:03:51.359Z,11.75
2018-05-25T10:06:18.879Z,10.77
2018-05-25T10:08:46.411Z,11.40
2018-05-25T10:11:13.964Z,10.88
2018-05-25T10:13:41.489Z,10.45
2018-05-25T10:16:09.038Z,9.80
2018-05-25T10:18:36.559Z,8.70
2018-05-25T10:21:04.088Z,8.40
2018-05-25T10:23:31.604Z,8.60
2018-05-25T10:25:59.135Z,8.65
2018-05-25T10:28:26.652Z,8.48
2018-05-25T10:30:54.935Z,7.85
2018-05-25T10:33:22.479Z,8.05
2018-05-25T10:35:50.019Z,7.30
2018-05-25T10:38:17.539Z,9.20
2018-05-25T10:40:45.867Z,8.48
2018-05-25T10:43:14.171Z,9.27
2018-05-25T10:45:41.746Z,10.37
2018-05-25T10:48:09.227Z,8.67
2018-05-25T10:50:36.751Z,8.27
2018-05-25T10:53:05.316Z,7.90
2018-05-25T10:55:33.624Z,8.93
2018-05-25T10:58:01.164Z,9.13
2018-05-25T11:00:28.693Z,10.00
2018-05-25T11:02:56.231Z,11.40
2018-05-25T11:05:23.747Z,8.40
2018-05-25T11:07:51.263Z,8.83
2018-05-25T11:10:18.789Z,8.40
2018-05-25T11:12:46.299Z,6.97
2018-05-25T11:15:13.813Z,8.70
2018-05-25T11:17:41.336Z,7.55
2018-05-25T11:20:08.859Z,9.20
2018-05-25T11:22:37.061Z,9.03
2018-05-25T11:25:04.566Z,7.10
2018-05-25T11:27:32.084Z,6.70
2018-05-25T11:29:59.605Z,6.10
2018-05-25T11:32:27.120Z,8.17
2018-05-25T11:34:54.659Z,6.10
2018-05-25T11:37:22.173Z,6.47
2018-05-25T11:39:49.683Z,6.00
2018-05-25T11:42:17.970Z,7.75
2018-05-25T11:44:45.480Z,7.17
2018-05-25T11:47:13.020Z,9.63
2018-05-25T11:49:40.540Z,8.93
2018-05-25T11:52:08.087Z,9.03
2018-05-25T11:54:35.668Z,8.73
2018-05-25T11:57:03.211Z,9.00
2018-05-25T11:59:30.723Z,8.90
2018-05-25T12:01:58.241Z,8.33
2018-05-25T12:04:25.763Z,8.32
2018-05-25T12:06:53.280Z,7.80
2018-05-25T12:09:20.791Z,6.97
2018-05-25T12:11:48.304Z,8.03
2018-05-25T12:14:15.831Z,7.30
2018-05-25T12:16:43.342Z,8.73
2018-05-25T12:19:10.859Z,8.93
2018-05-25T12:21:38.375Z,9.15
2018-05-25T12:24:05.891Z,8.13
2018-05-25T12:26:33.419Z,9.27
2018-05-25T12:29:00.929Z,7.93
2018-05-25T12:31:28.963Z,7.00
2018-05-25T12:33:56.477Z,7.87
2018-05-25T12:36:23.992Z,8.00
2018-05-25T12:38:51.512Z,7.70
2018-05-25T12:41:19.027Z,7.37
2018-05-25T12:43:46.543Z,8.17
2018-05-25T12:46:14.071Z,8.00
2018-05-25T12:48:41.599Z,7.03
2018-05-25T12:51:09.107Z,6.90
2018-05-25T12:53:36.627Z,5.90
2018-05-25T12:56:04.145Z,5.70
2018-05-25T12:58:31.666Z,4.97
2018-05-25T13:00:59.183Z,5.70
2018-05-25T13:03:26.704Z,5.13
2018-05-25T13:05:54.213Z,5.27
2018-05-25T13:08:21.735Z,5.20
2018-05-25T13:10:49.248Z,5.03
2018-05-25T13:13:16.766Z,4.50
2018-05-25T13:15:44.289Z,4.30
2018-05-25T13:18:11.798Z,5.27
2018-05-25T13:20:39.309Z,4.80
2018-05-25T13:23:06.842Z,4.20
2018-05-25T13:25:34.464Z,4.87
2018-05-25T13:28:01.995Z,4.63
2018-05-25T13:30:29.500Z,4.73
2018-05-25T13:32:57.443Z,4.70
2018-05-25T13:35:24.950Z,4.77
2018-05-25T13:37:52.463Z,5.03
2018-05-25T13:40:19.986Z,4.60
2018-05-25T13:42:47.515Z,5.20
2018-05-25T13:45:15.039Z,4.97
2018-05-25T13:47:42.551Z,4.20
2018-05-25T13:50:10.835Z,4.37
2018-05-25T13:52:38.346Z,4.80
2018-05-25T13:55:05.867Z,4.97
2018-05-25T13:57:33.383Z,4.33
2018-05-25T14:00:00.907Z,4.80
2018-05-25T14:02:28.415Z,4.67
2018-05-25T14:04:55.927Z,5.03
2018-05-25T14:07:23.441Z,4.87
2018-05-25T14:09:50.963Z,5.50
2018-05-25T14:12:18.479Z,5.63
2018-05-25T14:14:45.999Z,6.37
2018-05-25T14:17:13.513Z,6.70
2018-05-25T14:19:41.023Z,6.73
2018-05-25T14:22:08.537Z,7.03
2018-05-25T14:24:36.042Z,7.60
2018-05-25T14:27:03.561Z,7.40
2018-05-25T14:29:31.067Z,7.30
2018-05-25T14:31:58.582Z,7.67
2018-05-25T14:34:26.095Z,7.70
2018-05-25T14:36:53.607Z,7.57
2018-05-25T14:39:21.139Z,7.63
2018-05-25T14:41:48.656Z,6.57
2018-05-25T14:44:16.175Z,6.83
2018-05-25T14:46:43.699Z,6.60
2018-05-25T14:49:11.224Z,7.30
2018-05-25T14:51:38.757Z,6.23
2018-05-25T14:54:06.275Z,6.37
2018-05-25T14:56:33.791Z,7.07
2018-05-25T14:59:01.355Z,6.43
2018-05-25T15:01:28.863Z,6.60
2018-05-25T15:03:57.163Z,6.10
2018-05-25T15:06:24.688Z,6.60
2018-05-25T15:08:52.236Z,5.87
2018-05-25T15:11:19.783Z,6.47
2018-05-25T15:13:47.291Z,6.20
2018-05-25T15:16:14.803Z,6.67
2018-05-25T15:18:42.319Z,6.60
2018-05-25T15:21:09.904Z,7.00
2018-05-25T15:23:37.463Z,6.20
2018-05-25T15:26:04.996Z,6.83
2018-05-25T15:28:33.285Z,7.17
2018-05-25T15:31:00.925Z,7.47
2018-05-25T15:33:28.347Z,7.50
2018-05-25T15:35:55.863Z,7.07
2018-05-25T15:38:23.414Z,7.17
2018-05-25T15:40:50.932Z,6.87
2018-05-25T15:43:18.435Z,7.17
2018-05-25T15:45:45.955Z,8.13
2018-05-25T15:48:13.473Z,7.67
2018-05-25T15:50:40.982Z,8.60
2018-05-25T15:53:08.499Z,7.90
2018-05-25T15:55:36.040Z,8.37
2018-05-25T15:58:03.563Z,7.60
2018-05-25T16:00:31.855Z,6.97
2018-05-25T16:02:59.419Z,7.53
2018-05-25T16:05:26.954Z,8.37
2018-05-25T16:07:55.248Z,7.23
2018-05-25T16:10:22.776Z,8.03
2018-05-25T16:12:50.288Z,7.03
2018-05-25T16:15:17.805Z,8.33
2018-05-25T16:17:45.330Z,8.27
2018-05-25T16:20:12.843Z,7.40
2018-05-25T16:22:40.367Z,6.23
2018-05-25T16:25:07.892Z,6.27
2018-05-25T16:27:35.411Z,5.23
2018-05-25T16:30:02.951Z,5.10
2018-05-25T16:32:30.475Z,5.43
2018-05-25T16:34:58.000Z,5.40
2018-05-25T16:37:26.274Z,5.17
2018-05-25T16:39:53.792Z,5.80
2018-05-25T16:42:21.304Z,5.43
2018-05-25T16:44:49.608Z,5.17
2018-05-25T16:47:17.123Z,5.40
2018-05-25T16:49:44.640Z,5.20
2018-05-25T16:52:12.152Z,4.90
2018-05-25T16:54:39.665Z,5.33
2018-05-25T16:57:07.187Z,4.97
2018-05-25T16:59:34.701Z,5.70
2018-05-25T17:02:02.225Z,5.07
2018-05-25T17:04:29.747Z,5.23
2018-05-25T17:06:57.255Z,4.93
2018-05-25T17:09:24.768Z,5.40
2018-05-25T17:11:52.279Z,5.73
2018-05-25T17:14:19.795Z,5.30
2018-05-25T17:16:48.091Z,5.23
2018-05-25T17:19:15.619Z,5.13
2018-05-25T17:21:43.131Z,5.70
2018-05-25T17:24:10.639Z,5.40
2018-05-25T17:26:38.156Z,5.23
2018-05-25T17:29:05.677Z,5.43
2018-05-25T17:31:33.203Z,5.20
2018-05-25T17:34:00.714Z,5.87
2018-05-25T17:36:28.223Z,5.80
2018-05-25T17:38:55.749Z,6.03
2018-05-25T17:41:23.260Z,6.30
2018-05-25T17:43:50.773Z,6.10
2018-05-25T17:46:18.287Z,5.73
2018-05-25T17:48:46.572Z,5.53
2018-05-25T17:51:14.086Z,5.53
2018-05-25T17:53:41.599Z,5.57
2018-05-25T17:56:09.111Z,6.10
2018-05-25T17:58:36.636Z,6.10
2018-05-25T18:01:04.148Z,5.90
2018-05-25T18:03:32.427Z,6.30
2018-05-25T18:05:59.940Z,6.13
2018-05-25T18:08:27.467Z,5.70
2018-05-25T18:10:55.974Z,6.03
2018-05-25T18:13:23.491Z,5.90
2018-05-25T18:15:51.804Z,5.60
2018-05-25T18:18:19.310Z,5.80
2018-05-25T18:20:46.852Z,5.73
2018-05-25T18:23:14.377Z,5.90
2018-05-25T18:25:41.896Z,5.23
2018-05-25T18:28:09.423Z,6.27
2018-05-25T18:30:36.937Z,6.13
2018-05-25T18:33:04.458Z,5.83
2018-05-25T18:35:31.981Z,6.40
2018-05-25T18:37:59.498Z,6.43
2018-05-25T18:40:27.031Z,7.00
2018-05-25T18:42:54.555Z,6.87
2018-05-25T18:45:22.077Z,7.50
2018-05-25T18:47:49.591Z,7.47
2018-05-25T18:50:17.111Z,7.87
2018-05-25T18:52:44.625Z,7.57
2018-05-25T18:55:12.140Z,7.83
2018-05-25T18:57:39.659Z,7.47
2018-05-25T19:00:07.175Z,8.30
2018-05-25T19:02:35.455Z,7.37
2018-05-25T19:05:02.983Z,7.23
2018-05-25T19:07:30.499Z,8.17
2018-05-25T19:09:58.096Z,8.30
2018-05-25T19:12:25.630Z,7.23
2018-05-25T19:14:53.160Z,8.40
2018-05-25T19:17:20.679Z,8.53
2018-05-25T19:19:48.188Z,8.80
2018-05-25T19:22:15.704Z,8.00
2018-05-25T19:24:43.228Z,8.73
2018-05-25T19:27:10.747Z,8.73
2018-05-25T19:29:39.031Z,9.10
2018-05-25T19:32:06.560Z,9.13
2018-05-25T19:34:34.083Z,8.83
2018-05-25T19:37:01.595Z,9.50
2018-05-25T19:39:29.867Z,8.97
2018-05-25T19:41:57.385Z,9.23
2018-05-25T19:44:24.907Z,9.63
2018-05-25T19:46:52.428Z,9.77
2018-05-25T19:49:19.951Z,10.27
2018-05-25T19:51:47.492Z,10.27
2018-05-25T19:54:15.018Z,10.17
2018-05-25T19:56:42.557Z,9.73
2018-05-25T19:59:10.085Z,10.70
2018-05-25T20:01:37.631Z,11.00
2018-05-25T20:04:05.180Z,11.23
2018-05-25T20:06:33.463Z,10.20
2018-05-25T20:09:00.999Z,10.40
2018-05-25T20:11:28.511Z,9.63
2018-05-25T20:13:56.036Z,10.93
2018-05-25T20:16:24.325Z,10.60
2018-05-25T20:18:51.853Z,11.23
2018-05-25T20:21:19.379Z,11.10
2018-05-25T20:23:46.900Z,10.47
2018-05-25T20:26:15.191Z,10.97
2018-05-25T20:28:42.716Z,11.90
2018-05-25T20:31:10.234Z,11.00
2018-05-25T20:33:37.779Z,11.77
2018-05-25T20:36:05.311Z,10.83
2018-05-25T20:38:32.838Z,11.83
2018-05-25T20:41:00.363Z,11.40
2018-05-25T20:43:27.880Z,11.83
2018-05-25T20:45:55.401Z,11.20
2018-05-25T20:48:22.927Z,11.27
2018-05-25T20:50:50.479Z,11.50
2018-05-25T20:53:18.052Z,11.23
2018-05-25T20:55:45.545Z,11.70
2018-05-25T20:58:13.103Z,11.93
2018-05-25T21:00:40.639Z,12.03
2018-05-25T21:03:08.164Z,11.63
2018-05-25T21:05:35.689Z,13.33
2018-05-25T21:08:03.233Z,12.83
2018-05-25T21:10:30.760Z,13.60
2018-05-25T21:12:58.299Z,13.40
2018-05-25T21:15:25.834Z,13.20
2018-05-25T21:17:53.395Z,12.27
2018-05-25T21:20:20.931Z,13.13
2018-05-25T21:22:48.487Z,13.43
2018-05-25T21:25:16.607Z,13.50
2018-05-25T21:27:44.143Z,14.40
2018-05-25T21:30:11.673Z,14.60
2018-05-25T21:32:39.227Z,13.50
2018-05-25T21:35:06.879Z,13.57
2018-05-25T21:37:34.415Z,14.80
2018-05-25T21:40:01.931Z,14.17
2018-05-25T21:42:29.451Z,14.87
2018-05-25T21:44:56.978Z,13.83
2018-05-25T21:47:24.507Z,13.63
2018-05-25T21:49:52.027Z,14.77
2018-05-25T21:52:20.315Z,14.70
2018-05-25T21:54:47.839Z,13.40
2018-05-25T21:57:15.356Z,14.33
2018-05-25T21:59:42.881Z,13.97
2018-05-25T22:02:11.179Z,14.87
2018-05-25T22:04:38.704Z,15.37
2018-05-25T22:07:06.264Z,15.10
2018-05-25T22:09:33.786Z,14.80
2018-05-25T22:12:01.312Z,15.17
2018-05-25T22:14:28.839Z,15.40
2018-05-25T22:16:56.359Z,15.50
2018-05-25T22:19:23.887Z,15.50
2018-05-25T22:21:51.427Z,17.00
2018-05-25T22:24:18.943Z,15.60
2018-05-25T22:26:46.463Z,16.83
2018-05-25T22:29:14.747Z,15.73
2018-05-25T22:31:42.272Z,16.43
2018-05-25T22:34:10.559Z,16.03
2018-05-25T22:36:38.080Z,15.70
2018-05-25T22:39:05.607Z,16.00
2018-05-25T22:41:33.130Z,17.50
2018-05-25T22:44:12.400Z,17.40
2018-05-25T22:46:51.706Z,17.67
2018-05-25T22:49:30.859Z,16.30
2018-05-25T22:52:10.207Z,17.63
2018-05-25T22:54:42.464Z,17.23
2018-05-25T22:57:09.963Z,19.07
2018-05-25T22:59:37.492Z,18.90
2018-05-25T23:02:05.027Z,17.60
2018-05-25T23:04:33.281Z,17.80
2018-05-25T23:07:00.824Z,18.33
2018-05-25T23:09:28.360Z,19.80
2018-05-25T23:11:55.887Z,18.50
2018-05-25T23:14:23.407Z,19.10
2018-05-25T23:16:50.926Z,17.87
2018-05-25T23:19:19.215Z,18.20
2018-05-25T23:21:46.736Z,19.10
2018-05-25T23:24:14.259Z,19.47
2018-05-25T23:26:41.783Z,18.40
2018-05-25T23:29:10.076Z,18.63
2018-05-25T23:31:37.623Z,18.80
2018-05-25T23:34:05.156Z,17.30
2018-05-25T23:36:32.700Z,18.73
2018-05-25T23:39:00.239Z,18.97
2018-05-25T23:41:27.751Z,18.43
2018-05-25T23:43:55.295Z,19.67
2018-05-25T23:46:22.821Z,19.60
2018-05-25T23:48:50.363Z,19.40
2018-05-25T23:51:17.888Z,18.63
2018-05-25T23:53:46.175Z,18.50
2018-05-25T23:56:13.700Z,19.77
2018-05-25T23:58:41.228Z,19.40
